• Join FlightAware (Why Join?)
  • Login
  • US Flag GB Flag 
01:11 EDT


 

Airport Tracker/Info


-or-


 

Live Flight TrackerFlight Track Log ✈ N799J ✈ 14-Sep-2013 ✈ KBTV - KHTO

Flight Track Log - Related Links

Times and Time Zones

All times are in EDT time to prevent confusion due to time zone crossing. See the N799J flight status page for this flight to view local times or setup timezone preferences in your user account.

Time Position Orientation Groundspeed Altitude Reporting Facility
EDT Latitude Longitude Course Direction KTS MPH feet Rate Location/Type
13:48 44.2581 -73.2301 196° South  Level FlightAware Approximate
13:49 44.2233 -73.2431 195° South  Level FlightAware Approximate
13:50 44.1884 -73.2559 195° South  Level FlightAware Approximate
13:51 44.1535 -73.2686 195° South  Level FlightAware Approximate
13:52 44.1186 -73.2813 195° South  Level FlightAware Approximate
13:53 44.0837 -73.2940 195° South  Level FlightAware Approximate
13:54 44.0489 -73.3067 195° South  Level FlightAware Approximate
13:55 44.0140 -73.3194 195° South  Level FlightAware Approximate
13:56 43.9791 -73.3320 195° South  Level FlightAware Approximate
13:57 43.9442 -73.3446 195° South  Level FlightAware Approximate
13:57 44.2300 -73.4164 195° South 149 171 6,100  Level Boston Center
13:58 43.9093 -73.3573 195° South  Level FlightAware Approximate
13:58 44.1903 -73.4275 191° South 149 171 6,100  Level Boston Center
13:59 43.8745 -73.3699 195° South  Level FlightAware Approximate
13:59 44.1528 -73.4383 192° South 144 166 6,000  Level Boston Center
14:00 43.8396 -73.3828 195° South  Level FlightAware Approximate
14:00 44.1153 -73.4464 189° South 144 166 6,000  Level Boston Center
14:01 43.8048 -73.3957 195° South  Level FlightAware Approximate
14:01 44.0756 -73.4572 191° South 144 166 6,000  Level Boston Center
14:02 44.0358 -73.4681 191° South 144 166 6,000  Level Boston Center
14:03 43.9961 -73.4819 194° South 149 171 6,000  Level Boston Center
14:04 43.9606 -73.4900 189° South 149 171 6,000  Level Boston Center
14:05 43.9208 -73.5008 191° South 144 166 6,000  Level Boston Center
14:06 43.8833 -73.5117 192° South 144 166 6,000 180 Level Boston Center
14:07 43.8478 -73.5197 189° South 139 160 6,400 420 Climbing Boston Center
14:08 43.8122 -73.5306 192° South 139 160 6,900 300 Climbing Boston Center
14:09 43.7747 -73.5414 192° South 134 154 7,000  Climbing Boston Center
14:10 43.7372 -73.5522 192° South 146 168 7,000  Level Boston Center
14:11 43.6933 -73.5628 190° South 146 168 7,000  Level Boston Center
14:12 43.6536 -73.5706 188° South 146 168 7,000  Level Boston Center
14:13 43.6119 -73.5786 188° South 146 168 7,000 60 Level Boston Center
14:13 43.5867 -73.5867 193° South 150 173 7,100  Climbing Boston Center
14:14 43.5719 -73.5919 195° South 146 168 7,000  Descending Boston Center
14:14 43.5408 -73.6000 191° South 150 173 7,100  Climbing Boston Center
14:15 43.5303 -73.6000 180° South 146 168 7,000  Descending Boston Center
14:15 43.4969 -73.6136 197° South 152 175 7,100  Climbing Boston Center
14:16 43.4886 -73.6106 165° South 146 168 7,000  Descending Boston Center
14:16 43.4614 -73.6214 196° South 148 170 7,100  Climbing Boston Center
14:17 43.4489 -73.6211 179° South 146 168 7,000  Descending Boston Center
14:17 43.4194 -73.6292 191° South 147 169 7,100  Climbing Boston Center
14:18 43.4092 -73.6347 201° Southwest 146 168 7,000  Descending Boston Center
14:18 43.3797 -73.6428 191° South 150 173 7,100  Climbing Boston Center
14:19 43.3631 -73.6453 186° South 151 174 7,000  Descending Boston Center
14:19 43.3381 -73.6561 197° South 153 176 7,100  Climbing Boston Center
14:20 43.3256 -73.6558 179° South 151 174 7,000  Descending Boston Center
14:20 43.3025 -73.6669 199° South 153 176 7,100  Climbing Boston Center
14:21 43.2794 -73.6692 184° South 151 174 7,000  Descending Boston Center
14:21 43.2586 -73.6744 190° South 153 176 7,100  Climbing Boston Center
14:22 43.2419 -73.6800 194° South 156 180 7,000  Descending Boston Center
14:22 43.2167 -73.6878 193° South 154 177 7,100  Climbing Boston Center
14:23 43.1958 -73.6875 179° South 156 180 7,000  Descending Boston Center
14:23 43.1731 -73.6956 194° South 154 177 7,100  Climbing Boston Center
14:24 43.1583 -73.6981 187° South 156 180 7,000  Descending Boston Center
14:24 43.1292 -73.7033 188° South 151 174 7,100 60 Climbing Boston Center
14:25 43.1122 -73.7086 193° South 161 185 7,100  Level Boston Center
14:25 43.0892 -73.7194 199° South 147 169 7,100  Level Boston Center
14:26 43.0769 -73.7192 179° South 161 185 7,100  Level Boston Center
14:26 43.0497 -73.7272 192° South 146 168 7,100  Level Boston Center
14:27 43.0331 -73.7297 186° South 156 180 7,100  Level Boston Center
14:27 43.0058 -73.7375 192° South 144 166 7,100  Level Boston Center
14:28 42.9975 -73.7403 194° South 156 180 7,100  Level Boston Center
14:28 42.9619 -73.7508 192° South 144 166 7,100  Level Boston Center
14:29 42.9200 -73.7614 190° South 145 167 7,100  Level Boston Center
14:30 42.8825 -73.7689 188° South 144 166 7,100  Level Boston Center
14:31 42.8428 -73.7822 194° South 143 165 7,100  Level Boston Center
14:32 42.8031 -73.7900 188° South 146 168 7,100  Level Boston Center
14:33 42.7611 -73.8031 193° South 147 169 7,100  Level Boston Center
14:34 42.7214 -73.8078 185° South 148 170 7,100  Level Boston Center
14:35 42.6797 -73.8069 179° South 149 171 7,100  Level Boston Center
14:37 42.6319 -73.8089 182° South 149 171 7,100  Level Boston Center
14:38 42.5964 -73.8081 179° South 148 170 7,100  Level Boston Center
14:39 42.5547 -73.8100 182° South 148 170 7,100  Level Boston Center
14:40 42.5108 -73.8089 179° South 150 173 7,100  Level Boston Center
14:41 42.4692 -73.8136 185° South 150 173 7,100  Level Boston Center
14:42 42.4297 -73.8128 179° South 150 173 7,100  Level Boston Center
14:43 42.3858 -73.8117 179° South 151 174 7,100  Level Boston Center
14:44 42.3378 -73.8164 184° South 150 173 7,100  Level Boston Center
14:45 42.3044 -73.8128 175° South 153 176 7,100  Level Boston Center
14:45 42.2942 -73.8125 179° South 150 173 7,100  Level Boston Center
14:46 42.2628 -73.8119 179° South 153 176 7,100  Level Boston Center
14:47 42.2214 -73.8025 170° South 158 182 7,100  Level Boston Center
14:48 42.1797 -73.7850 163° South 158 182 7,100  Level Boston Center
14:49 42.1383 -73.7672 162° South 163 188 7,100  Level Boston Center
14:50 42.0969 -73.7494 162° South 163 188 7,100 -60 Level Boston Center
14:51 42.0553 -73.7319 163° South 163 188 7,000 -60 Descending Boston Center
14:52 42.0203 -73.7144 160° South 163 188 7,000  Level Boston Center
14:53 41.9786 -73.6969 163° South 163 188 7,000  Level Boston Center
14:54 41.9372 -73.6764 160° South 163 188 7,000  Level Boston Center
14:55 41.8917 -73.6589 164° South 163 188 7,000 -240 Level Boston Center
14:56 41.8542 -73.6414 161° South 163 188 6,600 -420 Descending Boston Center
14:57 41.8064 -73.6208 162° South 163 188 6,200 -360 Descending Boston Center
14:58 41.7692 -73.6036 161° South 163 188 5,900 -60 Descending Boston Center
14:59 41.7256 -73.5833 161° South 163 188 6,100 60 Climbing Boston Center
15:00 41.6903 -73.5658 160° South 163 188 6,100  Level Boston Center
15:02 41.6000 -73.5167 158° South 153 176 6,100  Level New York TRACON
15:03 41.5667 -73.5000 159° South 152 175 6,100 -240 Level New York TRACON
15:04 41.5167 -73.4667 153° Southeast 151 174 5,700 -420 Descending New York TRACON
15:05 41.4833 -73.4333 143° Southeast 151 174 5,300 -360 Descending New York TRACON
15:06 41.4500 -73.4000 143° Southeast 149 171 5,000 -180 Descending New York TRACON
15:07 41.4167 -73.3667 143° Southeast 147 169 5,000  Level New York TRACON
15:08 41.3833 -73.3333 143° Southeast 150 173 5,000  Level New York TRACON
15:09 41.3500 -73.3167 159° South 151 174 5,000  Level New York TRACON
15:10 41.3167 -73.2833 143° Southeast 148 170 5,000  Level New York TRACON
15:11 41.3000 -73.2333 114° Southeast 150 173 5,000  Level New York TRACON
15:12 41.2667 -73.2000 143° Southeast 148 170 5,100  Climbing New York TRACON
15:13 41.2500 -73.1500 114° Southeast 145 167 5,000 -60 Descending New York TRACON
15:14 41.2333 -73.1000 114° Southeast 146 168 5,000  Level New York TRACON
15:15 41.2167 -73.0500 114° Southeast 148 170 5,000  Level New York TRACON
15:16 41.2000 -73.0167 124° Southeast 146 168 5,100  Climbing New York TRACON
15:17 41.1833 -72.9667 114° Southeast 146 168 5,000 -60 Descending New York TRACON
15:18 41.1667 -72.9167 114° Southeast 149 171 5,000  Level New York TRACON
15:19 41.1333 -72.8667 132° Southeast 148 170 5,100  Climbing New York TRACON
15:20 41.1167 -72.8167 114° Southeast 149 171 5,100  Level New York TRACON
15:21 41.1000 -72.7667 114° Southeast 150 173 5,100 -60 Level New York TRACON
15:22 41.0833 -72.7333 124° Southeast 151 174 5,000 -300 Descending New York TRACON
15:23 41.0667 -72.6833 114° Southeast 150 173 4,600 -420 Descending New York TRACON
15:24 41.0500 -72.6167 108° East 159 183 4,200 -360 Descending New York TRACON
15:25 41.0167 -72.5667 131° Southeast 152 175 3,900 -420 Descending New York TRACON
15:26 41.0000 -72.5167 114° Southeast 149 171 3,400 -480 Descending New York TRACON
15:27 40.9833 -72.4833 124° Southeast 147 169 3,000 -480 Descending New York TRACON
15:28 40.9667 -72.4333 114° Southeast 147 169 2,500 -540 Descending New York TRACON
15:29 40.9500 -72.3833 114° Southeast 142 163 2,000 -480 Descending New York TRACON
15:30 40.9333 -72.3333 114° Southeast 139 160 1,600 -420 Descending New York TRACON
15:31 40.9333 -72.3000 90° East 130 150 1,200 -300 Descending New York TRACON
15:32 40.9500 -72.2667 56° Northeast 104 120 1,100 -120 Descending New York TRACON
15:33 40.9500 -72.2167 90° East 106 122 1,000 -120 Descending New York TRACON
15:35 40.9500 -72.2500 56° Northeast  Level FlightAware Approximate
15:42 40.9594 -72.2517 56° Northeast  Level Estimated